Time;durP1;ratioP1;P1;durP2;ratioP2;P2;SDS_P1;SDS_P2;PMS_P1;PMS_P2;Temp;Humidity;BMP_temperature;BMP_pressure;BME280_temperature;BME280_humidity;BME280_pressure;Samples;Min_cycle;Max_cycle;Signal;HPM_P1;HPM_P2
2022/06/26 00:01:34;;;;;;;;;1.00;1.00;;;;;;;;5276492;27;8755;-68
2022/06/26 00:04:05;;;;;;;;;0.00;0.00;;;;;;;;5276131;27;8748;-68
2022/06/26 00:06:37;;;;;;;;;0.00;0.00;;;;;;;;5311681;27;8859;-68
2022/06/26 00:09:09;;;;;;;;;0.25;0.25;;;;;;;;5293148;27;8824;-69
2022/06/26 00:11:40;;;;;;;;;0.00;0.00;;;;;;;;5270546;27;8812;-70
2022/06/26 00:14:11;;;;;;;;;0.00;0.00;;;;;;;;5271511;28;8758;-69
2022/06/26 00:16:42;;;;;;;;;0.50;0.50;;;;;;;;5298575;27;8783;-69
2022/06/26 00:19:13;;;;;;;;;0.40;0.40;;;;;;;;5233775;28;8771;-69
2022/06/26 00:21:44;;;;;;;;;0.00;0.00;;;;;;;;5233796;28;8781;-68
2022/06/26 00:24:16;;;;;;;;;1.80;1.80;;;;;;;;5250578;28;8787;-68
2022/06/26 00:26:47;;;;;;;;;1.00;1.00;;;;;;;;5233997;28;8824;-69
2022/06/26 00:29:19;;;;;;;;;0.75;0.75;;;;;;;;5217611;28;8776;-69
2022/06/26 00:31:50;;;;;;;;;1.60;1.60;;;;;;;;5277236;27;8781;-69
2022/06/26 00:34:22;;;;;;;;;0.75;0.75;;;;;;;;5255096;28;8770;-68
2022/06/26 00:36:53;;;;;;;;;2.25;2.25;;;;;;;;5292495;27;9596;-68
2022/06/26 00:39:25;;;;;;;;;7.80;7.80;;;;;;;;5254481;28;8782;-68
2022/06/26 00:41:56;;;;;;;;;2.25;2.25;;;;;;;;5254227;28;9476;-68
2022/06/26 00:44:29;;;;;;;;;7.60;7.60;;;;;;;;5305220;27;8774;-68
2022/06/26 00:47:00;;;;;;;;;10.00;10.00;;;;;;;;5255068;28;8849;-68
2022/06/26 00:49:31;;;;;;;;;7.40;6.60;;;;;;;;5272563;27;8789;-68
2022/06/26 00:52:03;;;;;;;;;9.60;9.60;;;;;;;;5292228;27;9502;-68
2022/06/26 00:54:34;;;;;;;;;8.80;8.60;;;;;;;;5291302;27;8764;-69
2022/06/26 00:57:05;;;;;;;;;14.60;13.60;;;;;;;;5270862;28;8836;-69
2022/06/26 00:59:36;;;;;;;;;3.00;3.00;;;;;;;;5289290;28;9548;-68
2022/06/26 01:02:07;;;;;;;;;4.25;4.25;;;;;;;;5270802;28;8916;-68
2022/06/26 01:04:38;;;;;;;;;0.75;0.75;;;;;;;;5270734;28;8802;-68
2022/06/26 01:07:28;;;;;;;;;3.00;3.00;;;;;;;;5288807;28;8809;-67
2022/06/26 01:10:18;;;;;;;;;7.20;7.20;;;;;;;;5289968;28;8793;-68
2022/06/26 01:12:49;;;;;;;;;16.00;15.00;;;;;;;;5270601;28;8774;-68
2022/06/26 01:15:20;;;;;;;;;22.40;22.40;;;;;;;;5261137;27;8789;-68
2022/06/26 01:17:52;;;;;;;;;10.60;9.20;;;;;;;;5274528;27;8764;-68
2022/06/26 01:20:42;;;;;;;;;25.00;24.60;;;;;;;;5309824;27;8787;-68
2022/06/26 01:23:13;;;;;;;;;11.20;11.20;;;;;;;;5259777;28;8808;-68
2022/06/26 01:26:03;;;;;;;;;13.00;13.00;;;;;;;;5300141;27;8826;-68
2022/06/26 01:28:53;;;;;;;;;6.60;6.60;;;;;;;;5305509;27;8762;-68
2022/06/26 01:31:24;;;;;;;;;5.60;5.60;;;;;;;;5287597;28;8819;-68
2022/06/26 01:34:04;;;;;;;;;3.25;3.25;;;;;;;;5263611;27;8800;-68
2022/06/26 01:36:36;;;;;;;;;3.00;3.00;;;;;;;;5309677;27;8795;-68
2022/06/26 01:39:08;;;;;;;;;1.25;1.25;;;;;;;;5257406;27;8795;-68
2022/06/26 01:41:39;;;;;;;;;1.00;1.00;;;;;;;;5291252;27;8740;-68
2022/06/26 01:44:10;;;;;;;;;0.00;0.00;;;;;;;;5291520;27;8840;-67
2022/06/26 01:46:41;;;;;;;;;1.00;1.00;;;;;;;;5291046;27;8812;-67
2022/06/26 01:49:13;;;;;;;;;0.00;0.00;;;;;;;;5273711;27;8808;-68
2022/06/26 01:51:44;;;;;;;;;1.50;1.50;;;;;;;;5309427;27;8776;-69
2022/06/26 01:54:16;;;;;;;;;2.00;2.00;;;;;;;;5297477;28;9523;-68
2022/06/26 01:56:48;;;;;;;;;1.00;1.00;;;;;;;;5270030;28;8782;-68
2022/06/26 01:59:21;;;;;;;;;2.00;2.00;;;;;;;;5253395;28;8782;-68
2022/06/26 02:02:11;;;;;;;;;1.00;1.00;;;;;;;;5288484;28;8896;-69
2022/06/26 02:04:42;;;;;;;;;1.00;1.00;;;;;;;;5288096;28;9479;-68
2022/06/26 02:07:13;;;;;;;;;1.00;1.00;;;;;;;;5269906;28;8868;-67
2022/06/26 02:15:26;;;;;;;;;0.25;0.25;;;;;;;;5265929;28;8760;-68
2022/06/26 02:17:57;;;;;;;;;0.00;0.00;;;;;;;;5248893;28;8976;-68
2022/06/26 02:20:30;;;;;;;;;0.75;0.75;;;;;;;;5248719;28;8756;-68
2022/06/26 02:23:01;;;;;;;;;1.50;1.50;;;;;;;;5266615;28;8788;-68
2022/06/26 02:25:34;;;;;;;;;0.75;0.75;;;;;;;;5231768;28;8828;-68
2022/06/26 02:28:06;;;;;;;;;1.00;1.00;;;;;;;;5274327;27;8783;-69
2022/06/26 02:30:38;;;;;;;;;1.25;1.25;;;;;;;;5271376;27;8764;-69
2022/06/26 02:33:10;;;;;;;;;0.00;0.00;;;;;;;;5273807;27;8760;-69
2022/06/26 02:35:43;;;;;;;;;0.00;0.00;;;;;;;;5307480;27;8758;-69
2022/06/26 02:38:15;;;;;;;;;0.00;0.00;;;;;;;;5290749;27;8779;-68
2022/06/26 02:40:50;;;;;;;;;0.00;0.00;;;;;;;;5290974;27;8764;-68
2022/06/26 02:43:24;;;;;;;;;0.00;0.00;;;;;;;;5294878;27;8775;-68
2022/06/26 02:45:55;;;;;;;;;0.00;0.00;;;;;;;;5312758;27;8799;-68
2022/06/26 02:48:28;;;;;;;;;0.75;0.75;;;;;;;;5282057;28;8800;-67
2022/06/26 02:50:59;;;;;;;;;0.25;0.25;;;;;;;;5273492;28;8793;-68
2022/06/26 02:53:30;;;;;;;;;1.00;1.00;;;;;;;;5291554;28;8746;-68
2022/06/26 02:56:01;;;;;;;;;1.00;1.00;;;;;;;;5291498;28;8839;-69
2022/06/26 02:58:33;;;;;;;;;0.00;0.00;;;;;;;;5256277;28;8986;-67
2022/06/26 03:01:06;;;;;;;;;0.00;0.00;;;;;;;;5273262;28;8850;-69
2022/06/26 03:03:39;;;;;;;;;21.00;19.60;;;;;;;;5273325;28;8842;-67
2022/06/26 03:06:14;;;;;;;;;3.00;3.00;;;;;;;;5280049;27;8845;-68
2022/06/26 03:08:45;;;;;;;;;0.00;0.00;;;;;;;;5255168;28;8770;-68
2022/06/26 03:11:17;;;;;;;;;0.00;0.00;;;;;;;;5273360;28;8769;-70
2022/06/26 03:13:48;;;;;;;;;0.75;0.75;;;;;;;;5256313;28;8758;-67
2022/06/26 03:16:19;;;;;;;;;1.00;0.25;;;;;;;;5256257;28;9509;-69
2022/06/26 03:19:09;;;;;;;;;2.50;2.50;;;;;;;;5291080;28;8754;-67
2022/06/26 03:21:41;;;;;;;;;0.75;0.75;;;;;;;;5239477;28;8790;-68
2022/06/26 03:24:17;;;;;;;;;0.25;0.25;;;;;;;;5256095;28;8790;-69
2022/06/26 03:26:48;;;;;;;;;2.00;2.00;;;;;;;;5289643;28;8834;-70
2022/06/26 03:29:20;;;;;;;;;0.00;0.00;;;;;;;;5255468;28;8822;-69
2022/06/26 03:31:51;;;;;;;;;0.00;0.00;;;;;;;;5287761;28;8801;-69
2022/06/26 03:34:24;;;;;;;;;0.00;0.00;;;;;;;;5273091;28;9499;-68
2022/06/26 03:36:55;;;;;;;;;1.00;1.00;;;;;;;;5272298;28;8800;-68
2022/06/26 03:39:26;;;;;;;;;0.00;0.00;;;;;;;;5272665;28;8785;-70
2022/06/26 03:42:02;;;;;;;;;0.00;0.00;;;;;;;;5255580;28;8802;-69
2022/06/26 03:44:43;;;;;;;;;1.00;0.75;;;;;;;;5273240;27;8787;-69
2022/06/26 03:47:14;;;;;;;;;6.50;5.50;;;;;;;;5244327;28;8817;-70
2022/06/26 03:49:47;;;;;;;;;1.00;0.50;;;;;;;;5272461;28;9612;-69
2022/06/26 03:52:36;;;;;;;;;1.75;1.75;;;;;;;;5271912;28;8774;-69
2022/06/26 03:55:25;;;;;;;;;1.00;1.00;;;;;;;;5257761;28;8780;-68
2022/06/26 03:57:58;;;;;;;;;1.00;0.00;;;;;;;;5255105;28;8782;-67
2022/06/26 04:00:31;;;;;;;;;0.00;0.00;;;;;;;;5272169;27;8920;-68
2022/06/26 04:03:03;;;;;;;;;3.00;1.00;;;;;;;;5272691;28;8816;-69
2022/06/26 04:05:39;;;;;;;;;0.00;0.00;;;;;;;;5255259;28;8836;-69
2022/06/26 04:08:10;;;;;;;;;0.00;0.00;;;;;;;;5271266;28;8794;-68
2022/06/26 04:10:46;;;;;;;;;3.00;3.00;;;;;;;;5290863;27;8918;-69
2022/06/26 04:13:31;;;;;;;;;1.00;0.00;;;;;;;;5276070;27;8791;-68
2022/06/26 04:16:02;;;;;;;;;0.00;0.00;;;;;;;;5281438;28;8810;-67
2022/06/26 04:18:34;;;;;;;;;0.00;0.00;;;;;;;;5254986;28;8781;-68
2022/06/26 04:21:06;;;;;;;;;1.00;0.00;;;;;;;;5254234;28;8820;-68
2022/06/26 04:23:40;;;;;;;;;0.00;0.00;;;;;;;;5272411;27;8785;-67
2022/06/26 04:26:30;;;;;;;;;0.00;0.00;;;;;;;;5293045;27;8798;-68
2022/06/26 04:29:01;;;;;;;;;1.00;0.75;;;;;;;;5287724;28;9571;-68
2022/06/26 04:31:45;;;;;;;;;0.00;0.00;;;;;;;;5256802;28;8786;-69
2022/06/26 04:34:17;;;;;;;;;0.00;0.00;;;;;;;;5306316;27;9488;-69
2022/06/26 04:36:48;;;;;;;;;0.00;0.00;;;;;;;;5288697;28;8766;-68
2022/06/26 04:39:38;;;;;;;;;0.00;0.00;;;;;;;;5289548;28;8900;-69
2022/06/26 04:42:09;;;;;;;;;0.00;0.00;;;;;;;;5254516;28;8947;-69
2022/06/26 04:44:43;;;;;;;;;0.00;0.00;;;;;;;;5287198;28;8912;-68
2022/06/26 04:47:15;;;;;;;;;1.00;1.00;;;;;;;;5267181;27;8930;-68
2022/06/26 04:50:01;;;;;;;;;1.00;1.00;;;;;;;;5277062;28;8786;-70
2022/06/26 04:52:34;;;;;;;;;0.00;0.00;;;;;;;;5269522;28;8778;-69
2022/06/26 04:55:05;;;;;;;;;0.00;0.00;;;;;;;;5235549;28;8769;-68
2022/06/26 04:57:41;;;;;;;;;0.00;0.00;;;;;;;;5250812;28;8789;-69
2022/06/26 05:00:14;;;;;;;;;0.00;0.00;;;;;;;;5289854;27;8896;-68
2022/06/26 05:02:56;;;;;;;;;0.00;0.00;;;;;;;;5266278;27;8784;-70
2022/06/26 05:05:43;;;;;;;;;1.00;1.00;;;;;;;;5306728;27;8810;-70
2022/06/26 05:08:33;;;;;;;;;0.00;0.00;;;;;;;;5259832;28;8791;-70
2022/06/26 05:11:22;;;;;;;;;0.00;0.00;;;;;;;;5284707;28;8786;-70
2022/06/26 05:13:57;;;;;;;;;0.00;0.00;;;;;;;;5267871;28;8771;-71
2022/06/26 05:16:47;;;;;;;;;2.75;2.00;;;;;;;;5270076;28;8790;-70
2022/06/26 05:19:19;;;;;;;;;0.25;0.00;;;;;;;;5270030;28;8774;-70
2022/06/26 05:21:52;;;;;;;;;0.00;0.00;;;;;;;;5270300;28;8777;-70
2022/06/26 05:24:25;;;;;;;;;0.50;0.00;;;;;;;;5253761;28;8825;-69
2022/06/26 05:27:15;;;;;;;;;0.00;0.00;;;;;;;;5282892;28;8907;-70
2022/06/26 05:29:46;;;;;;;;;1.00;1.00;;;;;;;;5286836;28;8768;-70
2022/06/26 05:32:35;;;;;;;;;2.00;2.00;;;;;;;;5267439;28;8756;-70
2022/06/26 05:35:11;;;;;;;;;1.75;1.75;;;;;;;;5232848;28;8816;-69
2022/06/26 05:37:42;;;;;;;;;1.50;1.25;;;;;;;;5249173;28;8862;-67
2022/06/26 05:40:17;;;;;;;;;1.00;1.00;;;;;;;;5265529;28;8788;-70
2022/06/26 05:42:48;;;;;;;;;1.75;1.00;;;;;;;;5249279;27;8775;-69
2022/06/26 05:45:19;;;;;;;;;0.00;0.00;;;;;;;;5289099;27;8772;-69
2022/06/26 05:48:08;;;;;;;;;0.00;0.00;;;;;;;;5270380;28;8782;-68
2022/06/26 05:50:52;;;;;;;;;1.00;0.00;;;;;;;;5270028;28;8809;-68
2022/06/26 05:53:40;;;;;;;;;0.00;0.00;;;;;;;;5270637;28;9508;-69
2022/06/26 05:56:43;;;;;;;;;0.00;0.00;;;;;;;;5247652;28;8797;-70
2022/06/26 05:59:29;;;;;;;;;0.00;0.00;;;;;;;;5263785;28;8918;-70
2022/06/26 06:02:18;;;;;;;;;0.00;0.00;;;;;;;;5278939;28;8772;-70
2022/06/26 06:04:49;;;;;;;;;0.25;0.25;;;;;;;;5281430;28;8833;-69
2022/06/26 06:07:22;;;;;;;;;0.00;0.00;;;;;;;;5300983;27;8843;-70
2022/06/26 06:09:54;;;;;;;;;0.00;0.00;;;;;;;;5290024;27;8820;-69
2022/06/26 06:12:25;;;;;;;;;0.00;0.00;;;;;;;;5273210;27;8799;-69
2022/06/26 06:14:56;;;;;;;;;0.00;0.00;;;;;;;;5289428;27;8760;-72
2022/06/26 06:17:40;;;;;;;;;0.00;0.00;;;;;;;;5275786;27;8830;-70
2022/06/26 06:20:14;;;;;;;;;1.00;1.00;;;;;;;;5292623;27;8841;-71
2022/06/26 06:22:51;;;;;;;;;0.00;0.00;;;;;;;;5273807;28;8793;-68
2022/06/26 06:25:22;;;;;;;;;0.50;0.50;;;;;;;;5256422;27;8818;-69
2022/06/26 06:28:12;;;;;;;;;0.00;0.00;;;;;;;;5311817;27;8811;-69
2022/06/26 06:30:45;;;;;;;;;1.00;0.00;;;;;;;;5275715;28;8850;-69
2022/06/26 06:33:34;;;;;;;;;0.00;0.00;;;;;;;;5259758;28;8893;-69
2022/06/26 06:36:08;;;;;;;;;2.00;2.00;;;;;;;;5240285;28;8770;-68
2022/06/26 06:38:41;;;;;;;;;1.25;1.25;;;;;;;;5256879;28;8782;-69
2022/06/26 06:41:31;;;;;;;;;1.75;1.00;;;;;;;;5259530;28;8797;-69
2022/06/26 06:44:12;;;;;;;;;0.00;0.00;;;;;;;;5273661;28;8929;-69
2022/06/26 06:47:02;;;;;;;;;0.00;0.00;;;;;;;;5273464;28;8822;-68
2022/06/26 06:49:51;;;;;;;;;0.00;0.00;;;;;;;;5259660;28;8869;-69
2022/06/26 06:52:26;;;;;;;;;0.00;0.00;;;;;;;;5273280;28;8892;-69
2022/06/26 06:55:15;;;;;;;;;0.50;0.50;;;;;;;;5276060;28;8762;-70
2022/06/26 06:57:46;;;;;;;;;0.00;0.00;;;;;;;;5256823;28;8754;-69
2022/06/26 07:00:18;;;;;;;;;1.25;0.00;;;;;;;;5256813;28;8792;-68
2022/06/26 07:02:49;;;;;;;;;0.00;0.00;;;;;;;;5273315;28;8762;-69
2022/06/26 07:05:20;;;;;;;;;0.00;0.00;;;;;;;;5256447;28;8754;-72
2022/06/26 07:07:55;;;;;;;;;0.50;0.00;;;;;;;;5273451;28;9518;-69
2022/06/26 07:10:26;;;;;;;;;1.25;1.00;;;;;;;;5256265;28;9480;-69
2022/06/26 07:13:00;;;;;;;;;2.00;2.00;;;;;;;;5256088;28;8753;-69
2022/06/26 07:15:32;;;;;;;;;0.00;0.00;;;;;;;;5273409;28;9626;-69
2022/06/26 07:18:04;;;;;;;;;2.25;1.50;;;;;;;;5290961;28;8785;-69
2022/06/26 07:20:35;;;;;;;;;1.75;1.75;;;;;;;;5290875;28;8754;-69
2022/06/26 07:23:09;;;;;;;;;2.25;2.00;;;;;;;;5239452;28;8850;-68
2022/06/26 07:25:51;;;;;;;;;2.00;2.00;;;;;;;;5256190;28;8797;-69
2022/06/26 07:28:28;;;;;;;;;1.00;1.00;;;;;;;;5272212;28;8788;-70
2022/06/26 07:30:59;;;;;;;;;0.00;0.00;;;;;;;;5272493;28;8766;-69
2022/06/26 07:36:20;;;;;;;;;0.00;0.00;;;;;;;;5266685;27;8852;-68
2022/06/26 07:39:12;;;;;;;;;0.00;0.00;;;;;;;;5272485;28;8774;-70
2022/06/26 07:41:46;;;;;;;;;0.50;0.50;;;;;;;;5255541;28;8778;-72
2022/06/26 07:44:18;;;;;;;;;0.50;0.50;;;;;;;;5293209;27;8880;-71
2022/06/26 07:46:49;;;;;;;;;0.00;0.00;;;;;;;;5269650;28;8809;-69
2022/06/26 07:49:31;;;;;;;;;0.00;0.00;;;;;;;;5282235;27;8870;-70
2022/06/26 07:52:05;;;;;;;;;0.00;0.00;;;;;;;;5273777;27;8792;-70
2022/06/26 07:54:56;;;;;;;;;0.50;0.50;;;;;;;;5288549;28;8795;-68
2022/06/26 07:57:27;;;;;;;;;0.00;0.00;;;;;;;;5289840;28;9544;-69
2022/06/26 07:59:58;;;;;;;;;0.00;0.00;;;;;;;;5271834;28;8774;-69
2022/06/26 08:02:30;;;;;;;;;1.00;1.00;;;;;;;;5270233;28;8923;-72
2022/06/26 08:05:05;;;;;;;;;2.25;1.00;;;;;;;;5289996;28;8789;-69
2022/06/26 08:07:36;;;;;;;;;1.00;1.00;;;;;;;;5271855;28;8817;-68
2022/06/26 08:10:07;;;;;;;;;0.00;0.00;;;;;;;;5266608;28;8823;-69
2022/06/26 08:12:38;;;;;;;;;1.00;1.00;;;;;;;;5268653;28;8779;-69
2022/06/26 08:15:09;;;;;;;;;0.00;0.00;;;;;;;;5262777;27;8797;-69
2022/06/26 08:17:41;;;;;;;;;0.00;0.00;;;;;;;;5238466;28;8815;-69
2022/06/26 08:20:12;;;;;;;;;0.00;0.00;;;;;;;;5250431;28;8796;-69
2022/06/26 08:22:43;;;;;;;;;0.00;0.00;;;;;;;;5268298;28;8772;-70
2022/06/26 08:25:14;;;;;;;;;0.00;0.00;;;;;;;;5270471;27;8790;-69
2022/06/26 08:27:45;;;;;;;;;2.75;2.75;;;;;;;;5267305;27;8807;-69
2022/06/26 08:30:16;;;;;;;;;0.50;0.50;;;;;;;;5292544;27;9479;-69
2022/06/26 08:32:47;;;;;;;;;0.00;0.00;;;;;;;;5275396;28;8892;-70
2022/06/26 08:35:17;;;;;;;;;0.00;0.00;;;;;;;;5271105;28;8762;-68
2022/06/26 08:37:49;;;;;;;;;0.00;0.00;;;;;;;;5289241;28;8777;-68
2022/06/26 08:40:38;;;;;;;;;0.00;0.00;;;;;;;;5249786;28;11366;-70
2022/06/26 08:43:10;;;;;;;;;0.00;0.00;;;;;;;;5275813;28;8972;-68
2022/06/26 08:45:43;;;;;;;;;0.00;0.00;;;;;;;;5288253;28;8888;-69
2022/06/26 08:48:15;;;;;;;;;0.00;0.00;;;;;;;;5266845;28;8957;-67
2022/06/26 08:50:46;;;;;;;;;0.00;0.00;;;;;;;;5233376;28;8760;-68
2022/06/26 08:53:18;;;;;;;;;0.00;0.00;;;;;;;;5257564;27;8760;-67
2022/06/26 08:55:50;;;;;;;;;0.00;0.00;;;;;;;;5257864;27;8784;-67
2022/06/26 08:58:21;;;;;;;;;0.00;0.00;;;;;;;;5270352;28;8758;-68
2022/06/26 09:00:52;;;;;;;;;0.00;0.00;;;;;;;;5273610;27;8830;-69
2022/06/26 09:03:23;;;;;;;;;0.00;0.00;;;;;;;;5257085;28;8802;-68
2022/06/26 09:06:12;;;;;;;;;0.00;0.00;;;;;;;;5288885;28;8790;-69
2022/06/26 09:08:44;;;;;;;;;0.00;0.00;;;;;;;;5288627;28;8812;-68
2022/06/26 09:11:15;;;;;;;;;0.00;0.00;;;;;;;;5271046;28;8773;-68
2022/06/26 09:13:47;;;;;;;;;0.75;0.50;;;;;;;;5258464;28;8770;-69
2022/06/26 09:16:38;;;;;;;;;0.00;0.00;;;;;;;;5273268;28;8892;-68
2022/06/26 09:19:10;;;;;;;;;0.00;0.00;;;;;;;;5281312;27;8772;-69
2022/06/26 09:21:41;;;;;;;;;0.50;0.50;;;;;;;;5258047;27;8779;-68
2022/06/26 09:24:14;;;;;;;;;0.00;0.00;;;;;;;;5309790;27;8836;-67
2022/06/26 09:26:45;;;;;;;;;0.00;0.00;;;;;;;;5305029;27;8864;-69
2022/06/26 09:29:20;;;;;;;;;0.00;0.00;;;;;;;;5248334;28;8919;-70
2022/06/26 09:31:50;;;;;;;;;0.00;0.00;;;;;;;;5284379;28;8801;-67
2022/06/26 09:34:51;;;;;;;;;2.75;2.75;;;;;;;;5270596;28;8921;-69
2022/06/26 09:37:23;;;;;;;;;0.00;0.00;;;;;;;;5253169;28;8830;-69
2022/06/26 09:40:02;;;;;;;;;0.00;0.00;;;;;;;;5288090;28;8793;-70
2022/06/26 09:42:51;;;;;;;;;0.00;0.00;;;;;;;;5289289;27;9507;-68
2022/06/26 09:45:22;;;;;;;;;0.00;0.00;;;;;;;;5303693;27;8804;-68
2022/06/26 09:47:53;;;;;;;;;0.00;0.00;;;;;;;;5287988;28;8814;-69
2022/06/26 09:50:24;;;;;;;;;0.00;0.00;;;;;;;;5269451;28;8762;-69
2022/06/26 09:52:55;;;;;;;;;0.00;0.00;;;;;;;;5269740;28;9648;-69
2022/06/26 09:55:26;;;;;;;;;0.00;0.00;;;;;;;;5252962;27;8838;-68
2022/06/26 09:58:16;;;;;;;;;0.00;0.00;;;;;;;;5289399;27;9573;-69
2022/06/26 10:06:43;;;;;;;;;0.00;0.00;;;;;;;;5271618;28;8848;-70
2022/06/26 10:09:34;;;;;;;;;0.00;0.00;;;;;;;;5269815;28;9644;-69
2022/06/26 10:12:07;;;;;;;;;0.00;0.00;;;;;;;;5270358;28;8770;-69
2022/06/26 10:15:11;;;;;;;;;;;;;;;;;;;;;
2022/06/26 10:18:25;;;;;;;;;0.00;0.00;;;;;;;;5287954;28;8782;-70
2022/06/26 10:20:58;;;;;;;;;0.00;0.00;;;;;;;;5287497;28;8786;-70
2022/06/26 10:23:32;;;;;;;;;0.00;0.00;;;;;;;;5270819;28;9508;-68
2022/06/26 10:26:31;;;;;;;;;1.00;1.00;;;;;;;;5249434;27;8788;-68
2022/06/26 10:29:06;;;;;;;;;0.00;0.00;;;;;;;;5278272;28;8774;-68
2022/06/26 10:31:55;;;;;;;;;0.00;0.00;;;;;;;;5255261;28;8770;-69
2022/06/26 10:34:26;;;;;;;;;0.00;0.00;;;;;;;;5306350;27;8748;-69
2022/06/26 10:37:12;;;;;;;;;1.75;0.25;;;;;;;;5290677;27;11394;-69
2022/06/26 10:39:45;;;;;;;;;0.00;0.00;;;;;;;;5289120;27;8880;-68
2022/06/26 10:45:39;;;;;;;;;0.50;0.50;;;;;;;;5251499;28;9495;-69
2022/06/26 10:48:20;;;;;;;;;0.00;0.00;;;;;;;;5283238;28;8991;-69
2022/06/26 10:51:01;;;;;;;;;0.00;0.00;;;;;;;;5235537;28;8786;-69
2022/06/26 10:53:36;;;;;;;;;0.00;0.00;;;;;;;;5270653;28;9508;-69
2022/06/26 10:56:08;;;;;;;;;0.00;0.00;;;;;;;;5252857;28;9527;-69
2022/06/26 10:58:42;;;;;;;;;0.00;0.00;;;;;;;;5252538;28;8962;-69
2022/06/26 11:01:13;;;;;;;;;0.00;0.00;;;;;;;;5252509;28;8881;-70
2022/06/26 11:04:03;;;;;;;;;0.00;0.00;;;;;;;;5304207;27;8816;-70
2022/06/26 11:06:38;;;;;;;;;0.00;0.00;;;;;;;;5289750;28;8819;-69
2022/06/26 11:09:09;;;;;;;;;0.00;0.00;;;;;;;;5290019;28;9638;-70
2022/06/26 11:11:40;;;;;;;;;0.00;0.00;;;;;;;;5272816;28;8767;-70
2022/06/26 11:14:11;;;;;;;;;0.00;0.00;;;;;;;;5252297;28;8853;-70
2022/06/26 11:16:45;;;;;;;;;0.00;0.00;;;;;;;;5251779;28;9486;-67
2022/06/26 11:19:25;;;;;;;;;2.25;1.00;;;;;;;;5235246;28;9451;-69
2022/06/26 11:22:07;;;;;;;;;0.00;0.00;;;;;;;;5250737;28;8775;-69
2022/06/26 11:24:48;;;;;;;;;0.00;0.00;;;;;;;;5246226;28;8831;-68
2022/06/26 11:27:26;;;;;;;;;0.00;0.00;;;;;;;;5214391;28;9602;-68
2022/06/26 11:29:57;;;;;;;;;0.00;0.00;;;;;;;;5269255;28;8803;-69
2022/06/26 11:32:28;;;;;;;;;0.00;0.00;;;;;;;;5247060;28;9672;-68
2022/06/26 11:34:59;;;;;;;;;0.33;0.33;;;;;;;;5248598;28;8946;-68
2022/06/26 11:37:35;;;;;;;;;0.00;0.00;;;;;;;;5248662;28;8909;-68
2022/06/26 11:40:16;;;;;;;;;0.00;0.00;;;;;;;;5247560;28;10738;-69
2022/06/26 11:42:53;;;;;;;;;0.00;0.00;;;;;;;;5250760;28;8801;-70
2022/06/26 11:45:25;;;;;;;;;0.00;0.00;;;;;;;;5269976;28;9536;-69
2022/06/26 11:47:56;;;;;;;;;0.00;0.00;;;;;;;;5277699;28;8818;-69
2022/06/26 11:50:32;;;;;;;;;0.00;0.00;;;;;;;;5283293;28;8803;-71
2022/06/26 11:53:04;;;;;;;;;1.50;1.50;;;;;;;;5233102;28;9068;-72
2022/06/26 11:55:44;;;;;;;;;0.75;0.75;;;;;;;;5249056;28;8989;-69
2022/06/26 11:58:34;;;;;;;;;0.00;0.00;;;;;;;;5268978;28;8898;-68
2022/06/26 12:01:10;;;;;;;;;0.00;0.00;;;;;;;;5267816;28;8841;-69
2022/06/26 12:03:47;;;;;;;;;0.00;0.00;;;;;;;;5267400;28;8989;-69
2022/06/26 12:06:27;;;;;;;;;0.00;0.00;;;;;;;;5267940;28;8831;-68
2022/06/26 12:09:13;;;;;;;;;0.00;0.00;;;;;;;;5234453;28;8813;-69
2022/06/26 12:11:44;;;;;;;;;0.25;0.25;;;;;;;;5250766;28;8781;-69
2022/06/26 12:14:17;;;;;;;;;0.00;0.00;;;;;;;;5249821;28;8782;-69
2022/06/26 12:16:49;;;;;;;;;0.00;0.00;;;;;;;;5267860;28;8983;-69
2022/06/26 12:19:20;;;;;;;;;0.00;0.00;;;;;;;;5267469;28;8808;-69
2022/06/26 12:21:52;;;;;;;;;1.00;1.00;;;;;;;;5267283;28;8784;-69
2022/06/26 12:24:23;;;;;;;;;0.00;0.00;;;;;;;;5234025;28;8832;-69
2022/06/26 12:26:57;;;;;;;;;0.00;0.00;;;;;;;;5266919;28;8822;-68
2022/06/26 12:29:27;;;;;;;;;0.00;0.00;;;;;;;;5250367;28;8781;-69
2022/06/26 12:32:00;;;;;;;;;0.00;0.00;;;;;;;;5234037;28;8820;-69
2022/06/26 12:34:31;;;;;;;;;0.00;0.00;;;;;;;;5266880;28;8797;-69
2022/06/26 12:37:02;;;;;;;;;0.00;0.00;;;;;;;;5266744;28;8838;-68
2022/06/26 12:39:33;;;;;;;;;0.25;0.25;;;;;;;;5268192;28;8869;-67
2022/06/26 12:42:22;;;;;;;;;1.00;1.00;;;;;;;;5252601;28;9417;-68
2022/06/26 12:44:53;;;;;;;;;0.00;0.00;;;;;;;;5266917;28;8816;-69
2022/06/26 12:47:24;;;;;;;;;1.50;1.50;;;;;;;;5266081;28;8808;-70
2022/06/26 12:49:55;;;;;;;;;2.00;2.00;;;;;;;;5248287;28;8887;-70
2022/06/26 12:52:26;;;;;;;;;1.00;1.00;;;;;;;;5253873;28;9952;-69
2022/06/26 12:54:57;;;;;;;;;0.00;0.00;;;;;;;;5232845;28;8785;-70
2022/06/26 12:57:46;;;;;;;;;0.00;0.00;;;;;;;;5266426;28;8785;-70
2022/06/26 13:00:17;;;;;;;;;0.67;0.33;;;;;;;;5267733;28;8777;-69
2022/06/26 13:02:49;;;;;;;;;0.00;0.00;;;;;;;;5249521;28;11323;-69
2022/06/26 13:05:20;;;;;;;;;0.00;0.00;;;;;;;;5250330;28;8860;-68
2022/06/26 13:07:51;;;;;;;;;2.00;2.00;;;;;;;;5266394;28;8827;-71
2022/06/26 13:10:22;;;;;;;;;0.50;0.50;;;;;;;;5251445;28;8805;-70
2022/06/26 13:12:53;;;;;;;;;1.25;1.25;;;;;;;;5268203;28;9226;-70
2022/06/26 13:15:24;;;;;;;;;1.00;1.00;;;;;;;;5264438;28;8807;-70
2022/06/26 13:17:55;;;;;;;;;0.00;0.00;;;;;;;;5244749;28;8799;-70
2022/06/26 13:20:26;;;;;;;;;1.00;1.00;;;;;;;;5264900;28;8812;-70
2022/06/26 13:22:57;;;;;;;;;1.75;1.75;;;;;;;;5264266;28;8804;-71
2022/06/26 13:25:28;;;;;;;;;1.75;1.75;;;;;;;;5265526;28;8789;-68
2022/06/26 13:27:59;;;;;;;;;0.25;0.25;;;;;;;;5282887;28;8762;-68
2022/06/26 13:30:30;;;;;;;;;2.33;2.33;;;;;;;;5253294;28;8862;-69
2022/06/26 13:33:02;;;;;;;;;1.25;1.25;;;;;;;;5288071;28;11379;-68
2022/06/26 13:35:33;;;;;;;;;1.00;1.00;;;;;;;;5269786;28;8807;-69
2022/06/26 13:38:04;;;;;;;;;2.25;2.25;;;;;;;;5236566;28;8789;-68
2022/06/26 13:40:35;;;;;;;;;0.50;0.50;;;;;;;;5288311;28;8777;-69
2022/06/26 13:43:06;;;;;;;;;0.00;0.00;;;;;;;;5270044;28;8770;-69
2022/06/26 13:45:37;;;;;;;;;0.00;0.00;;;;;;;;5269580;28;10954;-69
2022/06/26 13:48:29;;;;;;;;;0.00;0.00;;;;;;;;5288206;28;8754;-68
2022/06/26 13:51:00;;;;;;;;;1.00;1.00;;;;;;;;5269917;28;8750;-69
2022/06/26 13:53:31;;;;;;;;;2.00;2.00;;;;;;;;5269750;28;8858;-69
2022/06/26 13:56:02;;;;;;;;;0.00;0.00;;;;;;;;5287638;28;11356;-71
2022/06/26 13:58:33;;;;;;;;;0.00;0.00;;;;;;;;5269338;28;8961;-69
2022/06/26 14:01:04;;;;;;;;;0.00;0.00;;;;;;;;5269862;28;8921;-70
2022/06/26 14:03:35;;;;;;;;;0.50;0.50;;;;;;;;5287446;28;8782;-69
2022/06/26 14:06:06;;;;;;;;;1.75;1.75;;;;;;;;5269228;28;8793;-69
2022/06/26 14:08:37;;;;;;;;;0.00;0.00;;;;;;;;5269259;28;8763;-69
2022/06/26 14:11:26;;;;;;;;;0.00;0.00;;;;;;;;5284126;28;10041;-70
2022/06/26 14:14:15;;;;;;;;;0.00;0.00;;;;;;;;5287763;28;8778;-69
2022/06/26 14:16:46;;;;;;;;;0.00;0.00;;;;;;;;5252813;28;8774;-69
2022/06/26 14:19:17;;;;;;;;;1.50;1.50;;;;;;;;5269126;28;8763;-70
2022/06/26 14:25:55;;;;;;;;;0.00;0.00;;;;;;;;5236041;28;8770;-70
2022/06/26 14:27:47;;;;;;;;;0.00;0.00;;;;;;;;5287972;28;8874;-70
2022/06/26 14:30:18;;;;;;;;;0.00;0.00;;;;;;;;5269572;28;8770;-70
2022/06/26 14:32:49;;;;;;;;;0.50;0.50;;;;;;;;5287736;28;8789;-70
2022/06/26 14:35:21;;;;;;;;;0.00;0.00;;;;;;;;5286211;28;8786;-70
2022/06/26 14:37:52;;;;;;;;;0.00;0.00;;;;;;;;5271011;28;8854;-69
2022/06/26 14:40:23;;;;;;;;;0.00;0.00;;;;;;;;5273821;28;9636;-69
2022/06/26 14:42:54;;;;;;;;;0.00;0.00;;;;;;;;5291314;28;8809;-70
2022/06/26 14:45:25;;;;;;;;;0.00;0.00;;;;;;;;5289138;28;8777;-70
2022/06/26 14:47:56;;;;;;;;;2.00;2.00;;;;;;;;5256054;28;9491;-70
2022/06/26 14:50:27;;;;;;;;;0.75;0.75;;;;;;;;5269234;28;8782;-72
2022/06/26 14:53:16;;;;;;;;;0.75;0.75;;;;;;;;5304473;27;8774;-70
2022/06/26 14:55:47;;;;;;;;;0.00;0.00;;;;;;;;5254454;27;8817;-71
2022/06/26 14:58:21;;;;;;;;;0.00;0.00;;;;;;;;5238098;28;8788;-72
2022/06/26 15:00:53;;;;;;;;;0.00;0.00;;;;;;;;5274439;28;8797;-69
2022/06/26 15:03:43;;;;;;;;;0.00;0.00;;;;;;;;5284462;27;8798;-70
2022/06/26 15:06:14;;;;;;;;;0.00;0.00;;;;;;;;5309807;27;8835;-71
2022/06/26 15:08:45;;;;;;;;;3.00;3.00;;;;;;;;5265699;28;8864;-71
2022/06/26 15:11:34;;;;;;;;;1.00;1.00;;;;;;;;5282654;27;9549;-70
2022/06/26 15:14:05;;;;;;;;;3.75;3.75;;;;;;;;5291613;27;8788;-69
2022/06/26 15:16:36;;;;;;;;;1.00;1.00;;;;;;;;5279925;28;9034;-69
2022/06/26 15:19:07;;;;;;;;;1.00;1.00;;;;;;;;5261461;28;8804;-68
2022/06/26 15:21:56;;;;;;;;;0.00;0.00;;;;;;;;5287083;27;8783;-69
2022/06/26 15:24:27;;;;;;;;;0.75;0.75;;;;;;;;5280666;28;8891;-70
2022/06/26 15:26:58;;;;;;;;;2.75;2.75;;;;;;;;5262919;27;9549;-69
2022/06/26 15:29:29;;;;;;;;;1.00;1.00;;;;;;;;5274974;27;8791;-69
2022/06/26 15:32:00;;;;;;;;;2.50;2.50;;;;;;;;5283990;28;8784;-69
2022/06/26 15:34:31;;;;;;;;;0.00;0.00;;;;;;;;5244444;28;8772;-69
2022/06/26 15:40:00;;;;;;;;;0.50;0.50;;;;;;;;5289381;28;8791;-68
2022/06/26 15:42:31;;;;;;;;;0.00;0.00;;;;;;;;5290408;28;8816;-69
2022/06/26 15:45:02;;;;;;;;;0.00;0.00;;;;;;;;5290892;28;8925;-68
2022/06/26 15:47:34;;;;;;;;;2.00;2.00;;;;;;;;5290808;28;8832;-69
2022/06/26 15:50:06;;;;;;;;;0.75;0.75;;;;;;;;5271621;28;8849;-69
2022/06/26 15:52:37;;;;;;;;;2.25;2.25;;;;;;;;5272338;28;8897;-69
2022/06/26 15:55:08;;;;;;;;;0.25;0.25;;;;;;;;5252708;28;8902;-69
2022/06/26 15:57:39;;;;;;;;;1.50;1.50;;;;;;;;5272460;28;9469;-68
2022/06/26 16:00:11;;;;;;;;;3.00;3.00;;;;;;;;5288899;28;8784;-68
2022/06/26 16:02:42;;;;;;;;;2.50;2.50;;;;;;;;5290111;28;9536;-68
2022/06/26 16:05:13;;;;;;;;;3.50;3.50;;;;;;;;5288946;28;8787;-69
2022/06/26 16:07:44;;;;;;;;;2.50;2.50;;;;;;;;5273473;28;8911;-68